Terminal Aerodrome Forecast
Issued by NWS Atlanta, GA

Home | Current Version | Previous Version | Text Only | Print | Product List | Glossary On
Versions: 1 2 3 4 5 6 7 8 9 10 11 12 13 14 15 16 17 18 19 20 21 22 23 24 25 26 27 28 29 30 31 32 33 34 35 36 37 38 39 40 41 42
000
FTUS42 KFFC 020740 AAA
TAFATL
TAF AMD
KATL 020740Z 0208/0312 23003KT 3SM -DZ BR OVC003
      TEMPO 0210/0214 31005KT 1SM -DZ OVC005
     FM021400 29005KT 4SM -DZ OVC007
     FM021900 31007KT P6SM BKN012
     FM030100 34004KT 6SM BR OVC012
     FM030500 03003KT 3SM BR OVC007=

USA.gov is the U.S. government's official web portal to all federal, state and local government web resources and services.